sensor_id;sensor_type;location;lat;lon;timestamp;P1;durP1;ratioP1;P2;durP2;ratioP2
27491;SDS011;14927;51.210;6.838;2022-08-25T00:01:47;2.22;;;1.27;;
27491;SDS011;14927;51.210;6.838;2022-08-25T00:04:41;2.83;;;1.60;;
27491;SDS011;14927;51.210;6.838;2022-08-25T00:07:26;4.05;;;1.27;;
27491;SDS011;14927;51.210;6.838;2022-08-25T00:10:11;1.40;;;1.10;;
27491;SDS011;14927;51.210;6.838;2022-08-25T00:12:55;2.30;;;1.42;;
27491;SDS011;14927;51.210;6.838;2022-08-25T00:15:40;2.55;;;1.35;;
27491;SDS011;14927;51.210;6.838;2022-08-25T00:18:25;2.47;;;1.40;;
27491;SDS011;14927;51.210;6.838;2022-08-25T00:21:10;7.55;;;1.55;;
27491;SDS011;14927;51.210;6.838;2022-08-25T00:23:57;3.33;;;1.33;;
27491;SDS011;14927;51.210;6.838;2022-08-25T00:26:43;3.63;;;1.33;;
27491;SDS011;14927;51.210;6.838;2022-08-25T00:29:31;1.67;;;1.40;;
27491;SDS011;14927;51.210;6.838;2022-08-25T00:32:17;2.08;;;1.50;;
27491;SDS011;14927;51.210;6.838;2022-08-25T00:35:02;3.08;;;1.27;;
27491;SDS011;14927;51.210;6.838;2022-08-25T00:37:48;1.83;;;1.15;;
27491;SDS011;14927;51.210;6.838;2022-08-25T00:40:33;4.22;;;1.50;;
27491;SDS011;14927;51.210;6.838;2022-08-25T00:43:19;1.98;;;1.15;;
27491;SDS011;14927;51.210;6.838;2022-08-25T00:46:05;6.13;;;1.48;;
27491;SDS011;14927;51.210;6.838;2022-08-25T00:48:58;4.13;;;1.17;;
27491;SDS011;14927;51.210;6.838;2022-08-25T00:57:55;7.05;;;1.50;;
27491;SDS011;14927;51.210;6.838;2022-08-25T01:00:52;3.10;;;1.50;;
27491;SDS011;14927;51.210;6.838;2022-08-25T01:03:40;4.05;;;1.30;;
27491;SDS011;14927;51.210;6.838;2022-08-25T01:06:25;5.20;;;1.77;;
27491;SDS011;14927;51.210;6.838;2022-08-25T01:09:12;3.35;;;1.30;;
27491;SDS011;14927;51.210;6.838;2022-08-25T01:11:58;4.22;;;1.48;;
27491;SDS011;14927;51.210;6.838;2022-08-25T01:14:44;1.40;;;1.30;;
27491;SDS011;14927;51.210;6.838;2022-08-25T01:17:33;2.42;;;1.10;;
27491;SDS011;14927;51.210;6.838;2022-08-25T01:20:29;3.70;;;1.48;;
27491;SDS011;14927;51.210;6.838;2022-08-25T01:23:15;5.80;;;1.77;;
27491;SDS011;14927;51.210;6.838;2022-08-25T01:26:11;2.63;;;1.70;;
27491;SDS011;14927;51.210;6.838;2022-08-25T01:29:03;6.80;;;1.23;;
27491;SDS011;14927;51.210;6.838;2022-08-25T01:32:08;4.13;;;1.50;;
27491;SDS011;14927;51.210;6.838;2022-08-25T01:34:55;4.90;;;1.50;;
27491;SDS011;14927;51.210;6.838;2022-08-25T01:37:40;6.97;;;2.25;;
27491;SDS011;14927;51.210;6.838;2022-08-25T01:40:25;6.07;;;1.27;;
27491;SDS011;14927;51.210;6.838;2022-08-25T01:45:57;2.70;;;1.50;;
27491;SDS011;14927;51.210;6.838;2022-08-25T01:48:42;6.75;;;1.73;;
27491;SDS011;14927;51.210;6.838;2022-08-25T01:51:27;2.22;;;1.40;;
27491;SDS011;14927;51.210;6.838;2022-08-25T01:54:17;3.00;;;1.60;;
27491;SDS011;14927;51.210;6.838;2022-08-25T01:57:02;4.03;;;1.50;;
27491;SDS011;14927;51.210;6.838;2022-08-25T01:59:47;3.28;;;1.70;;
27491;SDS011;14927;51.210;6.838;2022-08-25T02:02:31;3.53;;;1.65;;
27491;SDS011;14927;51.210;6.838;2022-08-25T02:05:16;6.47;;;1.80;;
27491;SDS011;14927;51.210;6.838;2022-08-25T02:08:01;3.05;;;1.67;;
27491;SDS011;14927;51.210;6.838;2022-08-25T02:10:46;4.97;;;2.17;;
27491;SDS011;14927;51.210;6.838;2022-08-25T02:13:30;4.60;;;1.75;;
27491;SDS011;14927;51.210;6.838;2022-08-25T02:16:16;4.40;;;1.73;;
27491;SDS011;14927;51.210;6.838;2022-08-25T02:19:08;3.10;;;1.83;;
27491;SDS011;14927;51.210;6.838;2022-08-25T02:21:55;3.63;;;2.05;;
27491;SDS011;14927;51.210;6.838;2022-08-25T02:24:41;4.75;;;2.30;;
27491;SDS011;14927;51.210;6.838;2022-08-25T02:27:25;4.05;;;1.50;;
27491;SDS011;14927;51.210;6.838;2022-08-25T02:30:14;5.25;;;2.67;;
27491;SDS011;14927;51.210;6.838;2022-08-25T02:33:00;3.53;;;1.85;;
27491;SDS011;14927;51.210;6.838;2022-08-25T02:35:44;2.95;;;1.90;;
27491;SDS011;14927;51.210;6.838;2022-08-25T02:38:31;3.03;;;1.88;;
27491;SDS011;14927;51.210;6.838;2022-08-25T02:41:19;2.25;;;1.95;;
27491;SDS011;14927;51.210;6.838;2022-08-25T02:44:07;2.40;;;2.00;;
27491;SDS011;14927;51.210;6.838;2022-08-25T02:46:52;6.72;;;2.00;;
27491;SDS011;14927;51.210;6.838;2022-08-25T02:49:37;3.33;;;1.90;;
27491;SDS011;14927;51.210;6.838;2022-08-25T02:52:21;3.38;;;2.00;;
27491;SDS011;14927;51.210;6.838;2022-08-25T02:55:08;2.78;;;2.00;;
27491;SDS011;14927;51.210;6.838;2022-08-25T02:57:56;5.53;;;1.75;;
27491;SDS011;14927;51.210;6.838;2022-08-25T03:00:41;5.15;;;1.88;;
27491;SDS011;14927;51.210;6.838;2022-08-25T03:03:26;4.60;;;2.22;;
27491;SDS011;14927;51.210;6.838;2022-08-25T03:06:12;4.90;;;1.90;;
27491;SDS011;14927;51.210;6.838;2022-08-25T03:09:01;4.10;;;1.80;;
27491;SDS011;14927;51.210;6.838;2022-08-25T03:11:46;3.10;;;1.63;;
27491;SDS011;14927;51.210;6.838;2022-08-25T03:14:31;4.43;;;2.03;;
27491;SDS011;14927;51.210;6.838;2022-08-25T03:17:16;3.42;;;2.08;;
27491;SDS011;14927;51.210;6.838;2022-08-25T03:20:01;3.83;;;2.40;;
27491;SDS011;14927;51.210;6.838;2022-08-25T03:22:48;5.80;;;2.20;;
27491;SDS011;14927;51.210;6.838;2022-08-25T03:25:33;7.13;;;1.58;;
27491;SDS011;14927;51.210;6.838;2022-08-25T03:28:37;6.10;;;2.30;;
27491;SDS011;14927;51.210;6.838;2022-08-25T03:31:22;7.90;;;2.05;;
27491;SDS011;14927;51.210;6.838;2022-08-25T03:34:13;4.80;;;1.80;;
27491;SDS011;14927;51.210;6.838;2022-08-25T03:36:59;4.50;;;1.80;;
27491;SDS011;14927;51.210;6.838;2022-08-25T03:39:44;3.28;;;2.10;;
27491;SDS011;14927;51.210;6.838;2022-08-25T03:42:29;7.75;;;2.17;;
27491;SDS011;14927;51.210;6.838;2022-08-25T03:45:14;7.85;;;2.13;;
27491;SDS011;14927;51.210;6.838;2022-08-25T03:48:02;5.88;;;1.88;;
27491;SDS011;14927;51.210;6.838;2022-08-25T03:50:52;4.55;;;2.05;;
27491;SDS011;14927;51.210;6.838;2022-08-25T03:56:21;4.93;;;1.90;;
27491;SDS011;14927;51.210;6.838;2022-08-25T03:59:07;3.28;;;1.92;;
27491;SDS011;14927;51.210;6.838;2022-08-25T04:01:52;3.55;;;2.10;;
27491;SDS011;14927;51.210;6.838;2022-08-25T04:04:37;3.83;;;2.25;;
27491;SDS011;14927;51.210;6.838;2022-08-25T04:07:22;3.10;;;2.20;;
27491;SDS011;14927;51.210;6.838;2022-08-25T04:10:07;3.92;;;2.22;;
27491;SDS011;14927;51.210;6.838;2022-08-25T04:12:53;3.75;;;2.17;;
27491;SDS011;14927;51.210;6.838;2022-08-25T04:15:42;7.90;;;2.33;;
27491;SDS011;14927;51.210;6.838;2022-08-25T04:18:27;2.60;;;2.20;;
27491;SDS011;14927;51.210;6.838;2022-08-25T04:21:14;4.28;;;2.30;;
27491;SDS011;14927;51.210;6.838;2022-08-25T04:24:00;2.85;;;2.33;;
27491;SDS011;14927;51.210;6.838;2022-08-25T04:26:49;3.65;;;2.22;;
27491;SDS011;14927;51.210;6.838;2022-08-25T04:29:35;5.55;;;2.45;;
27491;SDS011;14927;51.210;6.838;2022-08-25T04:32:19;4.43;;;2.65;;
27491;SDS011;14927;51.210;6.838;2022-08-25T04:35:04;3.47;;;2.00;;
27491;SDS011;14927;51.210;6.838;2022-08-25T04:37:49;4.65;;;2.70;;
27491;SDS011;14927;51.210;6.838;2022-08-25T04:40:34;5.00;;;2.50;;
27491;SDS011;14927;51.210;6.838;2022-08-25T04:43:19;2.70;;;2.20;;
27491;SDS011;14927;51.210;6.838;2022-08-25T04:46:04;5.68;;;2.35;;
27491;SDS011;14927;51.210;6.838;2022-08-25T04:48:55;4.22;;;2.40;;
27491;SDS011;14927;51.210;6.838;2022-08-25T04:51:42;6.20;;;2.45;;
27491;SDS011;14927;51.210;6.838;2022-08-25T04:54:27;4.57;;;2.58;;
27491;SDS011;14927;51.210;6.838;2022-08-25T04:57:12;4.53;;;3.13;;
27491;SDS011;14927;51.210;6.838;2022-08-25T04:59:57;5.93;;;2.92;;
27491;SDS011;14927;51.210;6.838;2022-08-25T05:02:41;4.43;;;2.80;;
27491;SDS011;14927;51.210;6.838;2022-08-25T05:05:26;5.15;;;3.20;;
27491;SDS011;14927;51.210;6.838;2022-08-25T05:08:10;8.35;;;3.05;;
27491;SDS011;14927;51.210;6.838;2022-08-25T05:10:55;6.35;;;2.78;;
27491;SDS011;14927;51.210;6.838;2022-08-25T05:13:40;8.73;;;3.08;;
27491;SDS011;14927;51.210;6.838;2022-08-25T05:16:25;5.35;;;2.88;;
27491;SDS011;14927;51.210;6.838;2022-08-25T05:19:10;7.78;;;3.03;;
27491;SDS011;14927;51.210;6.838;2022-08-25T05:21:55;11.25;;;2.75;;
27491;SDS011;14927;51.210;6.838;2022-08-25T05:24:40;5.68;;;2.85;;
27491;SDS011;14927;51.210;6.838;2022-08-25T05:27:45;9.60;;;2.75;;
27491;SDS011;14927;51.210;6.838;2022-08-25T05:30:32;6.57;;;3.08;;
27491;SDS011;14927;51.210;6.838;2022-08-25T05:33:17;7.07;;;3.35;;
27491;SDS011;14927;51.210;6.838;2022-08-25T05:36:03;7.47;;;3.30;;
27491;SDS011;14927;51.210;6.838;2022-08-25T05:38:49;6.70;;;3.28;;
27491;SDS011;14927;51.210;6.838;2022-08-25T05:41:33;8.20;;;2.83;;
27491;SDS011;14927;51.210;6.838;2022-08-25T05:44:18;5.40;;;3.25;;
27491;SDS011;14927;51.210;6.838;2022-08-25T05:47:03;7.85;;;2.53;;
27491;SDS011;14927;51.210;6.838;2022-08-25T05:49:47;4.13;;;2.90;;
27491;SDS011;14927;51.210;6.838;2022-08-25T05:52:32;6.05;;;3.65;;
27491;SDS011;14927;51.210;6.838;2022-08-25T05:55:17;8.43;;;4.00;;
27491;SDS011;14927;51.210;6.838;2022-08-25T05:58:01;11.23;;;3.78;;
27491;SDS011;14927;51.210;6.838;2022-08-25T06:00:46;9.23;;;3.55;;
27491;SDS011;14927;51.210;6.838;2022-08-25T06:03:34;4.28;;;3.33;;
27491;SDS011;14927;51.210;6.838;2022-08-25T06:06:19;8.25;;;3.38;;
27491;SDS011;14927;51.210;6.838;2022-08-25T06:09:05;6.88;;;3.47;;
27491;SDS011;14927;51.210;6.838;2022-08-25T06:11:52;9.25;;;3.83;;
27491;SDS011;14927;51.210;6.838;2022-08-25T06:14:37;5.18;;;3.65;;
27491;SDS011;14927;51.210;6.838;2022-08-25T06:17:22;4.40;;;3.20;;
27491;SDS011;14927;51.210;6.838;2022-08-25T06:20:10;5.88;;;3.40;;
27491;SDS011;14927;51.210;6.838;2022-08-25T06:22:58;8.75;;;3.25;;
27491;SDS011;14927;51.210;6.838;2022-08-25T06:25:50;6.65;;;2.67;;
27491;SDS011;14927;51.210;6.838;2022-08-25T06:28:36;5.70;;;3.00;;
27491;SDS011;14927;51.210;6.838;2022-08-25T06:31:21;5.25;;;3.10;;
27491;SDS011;14927;51.210;6.838;2022-08-25T06:34:06;9.32;;;3.63;;
27491;SDS011;14927;51.210;6.838;2022-08-25T06:36:52;7.53;;;3.03;;
27491;SDS011;14927;51.210;6.838;2022-08-25T06:39:37;8.10;;;2.90;;
27491;SDS011;14927;51.210;6.838;2022-08-25T06:42:22;6.72;;;3.60;;
27491;SDS011;14927;51.210;6.838;2022-08-25T06:45:07;4.32;;;2.65;;
27491;SDS011;14927;51.210;6.838;2022-08-25T06:47:52;6.72;;;3.13;;
27491;SDS011;14927;51.210;6.838;2022-08-25T06:50:40;6.47;;;2.95;;
27491;SDS011;14927;51.210;6.838;2022-08-25T06:53:25;7.97;;;3.42;;
27491;SDS011;14927;51.210;6.838;2022-08-25T06:56:10;5.13;;;2.72;;
27491;SDS011;14927;51.210;6.838;2022-08-25T06:58:59;3.85;;;2.58;;
27491;SDS011;14927;51.210;6.838;2022-08-25T07:01:48;9.13;;;3.15;;
27491;SDS011;14927;51.210;6.838;2022-08-25T07:04:34;6.07;;;2.78;;
27491;SDS011;14927;51.210;6.838;2022-08-25T07:07:32;4.25;;;2.80;;
27491;SDS011;14927;51.210;6.838;2022-08-25T07:10:25;4.28;;;2.90;;
27491;SDS011;14927;51.210;6.838;2022-08-25T07:13:10;4.55;;;2.90;;
27491;SDS011;14927;51.210;6.838;2022-08-25T07:15:58;3.58;;;2.60;;
27491;SDS011;14927;51.210;6.838;2022-08-25T07:18:44;5.43;;;2.85;;
27491;SDS011;14927;51.210;6.838;2022-08-25T07:21:42;5.20;;;2.90;;
27491;SDS011;14927;51.210;6.838;2022-08-25T07:24:29;4.35;;;2.58;;
27491;SDS011;14927;51.210;6.838;2022-08-25T07:27:17;7.85;;;3.10;;
27491;SDS011;14927;51.210;6.838;2022-08-25T07:30:08;3.97;;;2.80;;
27491;SDS011;14927;51.210;6.838;2022-08-25T07:33:02;3.35;;;2.47;;
27491;SDS011;14927;51.210;6.838;2022-08-25T07:35:47;9.68;;;2.70;;
27491;SDS011;14927;51.210;6.838;2022-08-25T07:38:31;3.63;;;2.38;;
27491;SDS011;14927;51.210;6.838;2022-08-25T07:41:16;5.10;;;2.95;;
27491;SDS011;14927;51.210;6.838;2022-08-25T07:44:01;5.65;;;2.95;;
27491;SDS011;14927;51.210;6.838;2022-08-25T07:46:46;2.83;;;2.25;;
27491;SDS011;14927;51.210;6.838;2022-08-25T07:49:31;4.70;;;2.80;;
27491;SDS011;14927;51.210;6.838;2022-08-25T07:52:16;6.78;;;3.35;;
27491;SDS011;14927;51.210;6.838;2022-08-25T07:55:10;4.20;;;2.80;;
27491;SDS011;14927;51.210;6.838;2022-08-25T07:57:54;4.70;;;3.33;;
27491;SDS011;14927;51.210;6.838;2022-08-25T08:00:42;7.80;;;3.20;;
27491;SDS011;14927;51.210;6.838;2022-08-25T08:03:31;9.10;;;3.28;;
27491;SDS011;14927;51.210;6.838;2022-08-25T08:06:20;4.38;;;2.83;;
27491;SDS011;14927;51.210;6.838;2022-08-25T08:09:16;5.13;;;2.83;;
27491;SDS011;14927;51.210;6.838;2022-08-25T08:12:00;4.45;;;3.03;;
27491;SDS011;14927;51.210;6.838;2022-08-25T08:14:48;5.80;;;3.08;;
27491;SDS011;14927;51.210;6.838;2022-08-25T08:17:33;3.88;;;2.90;;
27491;SDS011;14927;51.210;6.838;2022-08-25T08:20:19;4.18;;;2.85;;
27491;SDS011;14927;51.210;6.838;2022-08-25T08:23:03;5.13;;;2.88;;
27491;SDS011;14927;51.210;6.838;2022-08-25T08:25:49;7.45;;;2.70;;
27491;SDS011;14927;51.210;6.838;2022-08-25T08:28:34;6.78;;;3.13;;
27491;SDS011;14927;51.210;6.838;2022-08-25T08:31:20;4.45;;;2.88;;
27491;SDS011;14927;51.210;6.838;2022-08-25T08:36:55;3.15;;;2.60;;
27491;SDS011;14927;51.210;6.838;2022-08-25T08:39:41;3.75;;;2.80;;
27491;SDS011;14927;51.210;6.838;2022-08-25T08:45:36;3.45;;;3.15;;
27491;SDS011;14927;51.210;6.838;2022-08-25T08:51:46;3.67;;;2.88;;
27491;SDS011;14927;51.210;6.838;2022-08-25T08:54:38;5.35;;;2.65;;
27491;SDS011;14927;51.210;6.838;2022-08-25T08:57:26;4.32;;;2.88;;
27491;SDS011;14927;51.210;6.838;2022-08-25T09:00:12;3.42;;;3.00;;
27491;SDS011;14927;51.210;6.838;2022-08-25T09:03:00;4.53;;;3.00;;
27491;SDS011;14927;51.210;6.838;2022-08-25T09:05:54;4.25;;;2.65;;
27491;SDS011;14927;51.210;6.838;2022-08-25T09:08:44;5.28;;;2.92;;
27491;SDS011;14927;51.210;6.838;2022-08-25T09:11:38;6.68;;;3.08;;
27491;SDS011;14927;51.210;6.838;2022-08-25T09:18:17;6.25;;;3.00;;
27491;SDS011;14927;51.210;6.838;2022-08-25T09:28:12;4.80;;;2.55;;
27491;SDS011;14927;51.210;6.838;2022-08-25T09:31:18;4.10;;;2.15;;
27491;SDS011;14927;51.210;6.838;2022-08-25T09:34:21;3.33;;;2.42;;
27491;SDS011;14927;51.210;6.838;2022-08-25T09:37:12;4.32;;;2.50;;
27491;SDS011;14927;51.210;6.838;2022-08-25T09:39:57;8.00;;;2.38;;
27491;SDS011;14927;51.210;6.838;2022-08-25T09:42:48;7.72;;;2.72;;
27491;SDS011;14927;51.210;6.838;2022-08-25T09:45:41;5.30;;;3.03;;
27491;SDS011;14927;51.210;6.838;2022-08-25T09:48:32;3.25;;;2.28;;
27491;SDS011;14927;51.210;6.838;2022-08-25T09:51:38;2.70;;;2.50;;
27491;SDS011;14927;51.210;6.838;2022-08-25T09:54:23;3.50;;;2.35;;
27491;SDS011;14927;51.210;6.838;2022-08-25T09:57:09;5.10;;;2.40;;
27491;SDS011;14927;51.210;6.838;2022-08-25T10:00:34;5.00;;;2.20;;
27491;SDS011;14927;51.210;6.838;2022-08-25T10:03:21;3.38;;;2.08;;
27491;SDS011;14927;51.210;6.838;2022-08-25T10:06:07;4.47;;;2.20;;
27491;SDS011;14927;51.210;6.838;2022-08-25T10:09:00;2.08;;;1.88;;
27491;SDS011;14927;51.210;6.838;2022-08-25T10:11:50;2.63;;;2.38;;
27491;SDS011;14927;51.210;6.838;2022-08-25T10:14:36;2.53;;;2.33;;
27491;SDS011;14927;51.210;6.838;2022-08-25T10:17:31;2.72;;;2.08;;
27491;SDS011;14927;51.210;6.838;2022-08-25T10:20:17;3.55;;;2.13;;
27491;SDS011;14927;51.210;6.838;2022-08-25T10:23:10;7.63;;;3.13;;
27491;SDS011;14927;51.210;6.838;2022-08-25T10:25:59;3.72;;;2.22;;
27491;SDS011;14927;51.210;6.838;2022-08-25T10:32:02;2.00;;;1.88;;
27491;SDS011;14927;51.210;6.838;2022-08-25T10:34:48;2.07;;;1.83;;
27491;SDS011;14927;51.210;6.838;2022-08-25T10:44:17;5.82;;;2.35;;
27491;SDS011;14927;51.210;6.838;2022-08-25T10:57:59;4.30;;;2.20;;
27491;SDS011;14927;51.210;6.838;2022-08-25T11:04:44;4.72;;;2.05;;
27491;SDS011;14927;51.210;6.838;2022-08-25T11:07:43;5.03;;;2.50;;
27491;SDS011;14927;51.210;6.838;2022-08-25T11:10:53;3.75;;;2.70;;
27491;SDS011;14927;51.210;6.838;2022-08-25T11:13:45;8.63;;;3.08;;
27491;SDS011;14927;51.210;6.838;2022-08-25T11:16:37;4.18;;;2.13;;
27491;SDS011;14927;51.210;6.838;2022-08-25T11:19:34;2.22;;;2.05;;
27491;SDS011;14927;51.210;6.838;2022-08-25T11:31:24;4.35;;;2.25;;
27491;SDS011;14927;51.210;6.838;2022-08-25T11:34:10;2.67;;;2.00;;
27491;SDS011;14927;51.210;6.838;2022-08-25T11:37:20;3.00;;;1.80;;
27491;SDS011;14927;51.210;6.838;2022-08-25T11:40:15;2.80;;;1.77;;
27491;SDS011;14927;51.210;6.838;2022-08-25T11:44:06;5.72;;;2.03;;
27491;SDS011;14927;51.210;6.838;2022-08-25T11:46:55;3.28;;;2.00;;
27491;SDS011;14927;51.210;6.838;2022-08-25T11:50:07;2.67;;;1.67;;
27491;SDS011;14927;51.210;6.838;2022-08-25T11:53:18;2.13;;;1.70;;
27491;SDS011;14927;51.210;6.838;2022-08-25T12:17:22;1.42;;;1.27;;
27491;SDS011;14927;51.210;6.838;2022-08-25T12:20:10;2.75;;;1.80;;
27491;SDS011;14927;51.210;6.838;2022-08-25T12:22:55;3.00;;;1.80;;
27491;SDS011;14927;51.210;6.838;2022-08-25T12:25:42;1.63;;;1.45;;
27491;SDS011;14927;51.210;6.838;2022-08-25T12:38:16;1.90;;;1.70;;
27491;SDS011;14927;51.210;6.838;2022-08-25T12:41:20;3.10;;;1.90;;
27491;SDS011;14927;51.210;6.838;2022-08-25T12:44:32;3.00;;;1.92;;
27491;SDS011;14927;51.210;6.838;2022-08-25T12:47:29;3.00;;;1.80;;
27491;SDS011;14927;51.210;6.838;2022-08-25T12:53:24;3.78;;;1.40;;
27491;SDS011;14927;51.210;6.838;2022-08-25T12:56:40;1.85;;;1.50;;
27491;SDS011;14927;51.210;6.838;2022-08-25T12:59:36;2.30;;;1.38;;
27491;SDS011;14927;51.210;6.838;2022-08-25T13:06:31;1.92;;;1.70;;
27491;SDS011;14927;51.210;6.838;2022-08-25T13:15:57;3.58;;;1.50;;
27491;SDS011;14927;51.210;6.838;2022-08-25T13:18:49;1.75;;;1.55;;
27491;SDS011;14927;51.210;6.838;2022-08-25T13:21:38;5.07;;;1.85;;
27491;SDS011;14927;51.210;6.838;2022-08-25T13:27:20;1.88;;;1.70;;
27491;SDS011;14927;51.210;6.838;2022-08-25T13:30:15;4.13;;;1.70;;
27491;SDS011;14927;51.210;6.838;2022-08-25T13:33:22;2.28;;;1.48;;
27491;SDS011;14927;51.210;6.838;2022-08-25T13:36:07;3.97;;;1.58;;
27491;SDS011;14927;51.210;6.838;2022-08-25T13:39:20;2.65;;;1.60;;
27491;SDS011;14927;51.210;6.838;2022-08-25T13:42:12;2.47;;;1.30;;
27491;SDS011;14927;51.210;6.838;2022-08-25T13:44:58;6.68;;;1.50;;
27491;SDS011;14927;51.210;6.838;2022-08-25T13:47:43;1.60;;;1.50;;
27491;SDS011;14927;51.210;6.838;2022-08-25T13:50:33;5.80;;;1.60;;
27491;SDS011;14927;51.210;6.838;2022-08-25T13:58:54;2.15;;;1.45;;
27491;SDS011;14927;51.210;6.838;2022-08-25T14:01:46;2.90;;;1.50;;
27491;SDS011;14927;51.210;6.838;2022-08-25T14:07:31;2.97;;;1.65;;
27491;SDS011;14927;51.210;6.838;2022-08-25T14:10:50;2.53;;;1.83;;
27491;SDS011;14927;51.210;6.838;2022-08-25T14:13:28;1.92;;;1.60;;
27491;SDS011;14927;51.210;6.838;2022-08-25T14:16:19;1.65;;;1.55;;
27491;SDS011;14927;51.210;6.838;2022-08-25T14:19:08;1.63;;;1.38;;
27491;SDS011;14927;51.210;6.838;2022-08-25T14:21:59;2.28;;;1.88;;
27491;SDS011;14927;51.210;6.838;2022-08-25T14:24:45;4.20;;;2.00;;
27491;SDS011;14927;51.210;6.838;2022-08-25T14:27:30;6.25;;;2.20;;
27491;SDS011;14927;51.210;6.838;2022-08-25T14:30:15;2.13;;;2.00;;
27491;SDS011;14927;51.210;6.838;2022-08-25T14:33:00;6.47;;;1.70;;
27491;SDS011;14927;51.210;6.838;2022-08-25T14:35:47;1.80;;;1.70;;
27491;SDS011;14927;51.210;6.838;2022-08-25T14:38:35;4.72;;;1.75;;
27491;SDS011;14927;51.210;6.838;2022-08-25T14:41:22;3.63;;;1.88;;
27491;SDS011;14927;51.210;6.838;2022-08-25T14:44:09;2.80;;;1.80;;
27491;SDS011;14927;51.210;6.838;2022-08-25T14:46:54;2.80;;;1.60;;
27491;SDS011;14927;51.210;6.838;2022-08-25T14:49:40;5.40;;;1.92;;
27491;SDS011;14927;51.210;6.838;2022-08-25T14:52:28;1.98;;;1.80;;
27491;SDS011;14927;51.210;6.838;2022-08-25T14:55:13;3.65;;;1.92;;
27491;SDS011;14927;51.210;6.838;2022-08-25T14:57:58;2.67;;;2.05;;
27491;SDS011;14927;51.210;6.838;2022-08-25T15:00:43;5.97;;;2.08;;
27491;SDS011;14927;51.210;6.838;2022-08-25T15:03:29;2.22;;;2.00;;
27491;SDS011;14927;51.210;6.838;2022-08-25T15:06:18;3.20;;;1.98;;
27491;SDS011;14927;51.210;6.838;2022-08-25T15:09:05;2.42;;;2.13;;
27491;SDS011;14927;51.210;6.838;2022-08-25T15:11:56;2.80;;;2.13;;
27491;SDS011;14927;51.210;6.838;2022-08-25T15:14:41;5.60;;;2.13;;
27491;SDS011;14927;51.210;6.838;2022-08-25T15:17:27;5.05;;;1.80;;
27491;SDS011;14927;51.210;6.838;2022-08-25T15:20:12;2.92;;;2.00;;
27491;SDS011;14927;51.210;6.838;2022-08-25T15:22:57;2.22;;;2.03;;
27491;SDS011;14927;51.210;6.838;2022-08-25T15:25:42;3.03;;;2.10;;
27491;SDS011;14927;51.210;6.838;2022-08-25T15:28:30;2.10;;;1.83;;
27491;SDS011;14927;51.210;6.838;2022-08-25T15:31:15;6.22;;;2.65;;
27491;SDS011;14927;51.210;6.838;2022-08-25T15:34:02;3.70;;;1.67;;
27491;SDS011;14927;51.210;6.838;2022-08-25T15:36:47;5.28;;;1.77;;
27491;SDS011;14927;51.210;6.838;2022-08-25T15:39:32;2.05;;;1.83;;
27491;SDS011;14927;51.210;6.838;2022-08-25T15:42:17;2.30;;;1.73;;
27491;SDS011;14927;51.210;6.838;2022-08-25T15:45:02;2.00;;;1.83;;
27491;SDS011;14927;51.210;6.838;2022-08-25T15:47:48;3.25;;;2.17;;
27491;SDS011;14927;51.210;6.838;2022-08-25T15:50:33;1.65;;;1.55;;
27491;SDS011;14927;51.210;6.838;2022-08-25T15:53:17;1.70;;;1.40;;
27491;SDS011;14927;51.210;6.838;2022-08-25T15:56:04;1.90;;;1.60;;
27491;SDS011;14927;51.210;6.838;2022-08-25T15:58:49;2.00;;;1.67;;
27491;SDS011;14927;51.210;6.838;2022-08-25T16:01:35;3.30;;;1.90;;
27491;SDS011;14927;51.210;6.838;2022-08-25T16:04:20;3.28;;;1.65;;
27491;SDS011;14927;51.210;6.838;2022-08-25T16:07:06;3.55;;;1.98;;
27491;SDS011;14927;51.210;6.838;2022-08-25T16:09:53;2.38;;;1.88;;
27491;SDS011;14927;51.210;6.838;2022-08-25T16:12:39;3.10;;;1.60;;
27491;SDS011;14927;51.210;6.838;2022-08-25T16:15:24;2.97;;;2.08;;
27491;SDS011;14927;51.210;6.838;2022-08-25T16:18:10;3.38;;;1.77;;
27491;SDS011;14927;51.210;6.838;2022-08-25T16:20:55;2.30;;;2.15;;
27491;SDS011;14927;51.210;6.838;2022-08-25T16:23:40;2.70;;;1.70;;
27491;SDS011;14927;51.210;6.838;2022-08-25T16:26:25;3.60;;;2.08;;
27491;SDS011;14927;51.210;6.838;2022-08-25T16:29:10;2.45;;;1.90;;
27491;SDS011;14927;51.210;6.838;2022-08-25T16:31:57;2.63;;;2.20;;
27491;SDS011;14927;51.210;6.838;2022-08-25T16:34:42;2.38;;;1.95;;
27491;SDS011;14927;51.210;6.838;2022-08-25T16:37:26;2.67;;;1.92;;
27491;SDS011;14927;51.210;6.838;2022-08-25T16:40:11;3.53;;;2.22;;
27491;SDS011;14927;51.210;6.838;2022-08-25T16:42:56;2.67;;;1.98;;
27491;SDS011;14927;51.210;6.838;2022-08-25T16:45:41;5.05;;;2.40;;
27491;SDS011;14927;51.210;6.838;2022-08-25T16:48:26;3.33;;;2.40;;
27491;SDS011;14927;51.210;6.838;2022-08-25T16:51:12;2.28;;;2.08;;
27491;SDS011;14927;51.210;6.838;2022-08-25T16:54:00;3.63;;;2.60;;
27491;SDS011;14927;51.210;6.838;2022-08-25T16:57:03;2.60;;;2.00;;
27491;SDS011;14927;51.210;6.838;2022-08-25T16:59:48;2.10;;;1.92;;
27491;SDS011;14927;51.210;6.838;2022-08-25T17:02:33;2.30;;;2.10;;
27491;SDS011;14927;51.210;6.838;2022-08-25T17:05:17;2.35;;;2.10;;
27491;SDS011;14927;51.210;6.838;2022-08-25T17:08:02;2.40;;;2.20;;
27491;SDS011;14927;51.210;6.838;2022-08-25T17:11:13;4.38;;;2.40;;
27491;SDS011;14927;51.210;6.838;2022-08-25T17:14:02;19.02;;;2.63;;
27491;SDS011;14927;51.210;6.838;2022-08-25T17:16:47;2.33;;;2.05;;
27491;SDS011;14927;51.210;6.838;2022-08-25T17:19:33;2.95;;;2.67;;
27491;SDS011;14927;51.210;6.838;2022-08-25T17:22:19;3.13;;;2.00;;
27491;SDS011;14927;51.210;6.838;2022-08-25T17:25:03;6.07;;;2.97;;
27491;SDS011;14927;51.210;6.838;2022-08-25T17:27:49;3.42;;;2.10;;
27491;SDS011;14927;51.210;6.838;2022-08-25T17:30:36;2.35;;;1.80;;
27491;SDS011;14927;51.210;6.838;2022-08-25T17:33:22;2.40;;;2.05;;
27491;SDS011;14927;51.210;6.838;2022-08-25T17:36:06;2.30;;;2.10;;
27491;SDS011;14927;51.210;6.838;2022-08-25T17:38:52;5.28;;;2.38;;
27491;SDS011;14927;51.210;6.838;2022-08-25T17:41:37;2.72;;;2.47;;
27491;SDS011;14927;51.210;6.838;2022-08-25T17:44:32;4.60;;;2.83;;
27491;SDS011;14927;51.210;6.838;2022-08-25T17:47:16;2.00;;;1.90;;
27491;SDS011;14927;51.210;6.838;2022-08-25T17:50:01;3.00;;;2.00;;
27491;SDS011;14927;51.210;6.838;2022-08-25T17:52:46;4.85;;;2.20;;
27491;SDS011;14927;51.210;6.838;2022-08-25T17:55:31;2.42;;;2.20;;
27491;SDS011;14927;51.210;6.838;2022-08-25T17:58:17;2.30;;;1.92;;
27491;SDS011;14927;51.210;6.838;2022-08-25T18:01:01;8.57;;;2.70;;
27491;SDS011;14927;51.210;6.838;2022-08-25T18:03:47;3.72;;;2.83;;
27491;SDS011;14927;51.210;6.838;2022-08-25T18:06:32;4.65;;;3.67;;
27491;SDS011;14927;51.210;6.838;2022-08-25T18:09:17;5.78;;;3.13;;
27491;SDS011;14927;51.210;6.838;2022-08-25T18:12:02;3.67;;;3.22;;
27491;SDS011;14927;51.210;6.838;2022-08-25T18:14:47;3.83;;;3.00;;
27491;SDS011;14927;51.210;6.838;2022-08-25T18:17:31;4.35;;;3.00;;
27491;SDS011;14927;51.210;6.838;2022-08-25T18:20:16;4.63;;;4.03;;
27491;SDS011;14927;51.210;6.838;2022-08-25T18:23:02;5.82;;;3.78;;
27491;SDS011;14927;51.210;6.838;2022-08-25T18:25:47;4.65;;;3.35;;
27491;SDS011;14927;51.210;6.838;2022-08-25T18:28:33;3.53;;;2.72;;
27491;SDS011;14927;51.210;6.838;2022-08-25T18:31:18;4.00;;;2.65;;
27491;SDS011;14927;51.210;6.838;2022-08-25T18:34:02;5.28;;;3.08;;
27491;SDS011;14927;51.210;6.838;2022-08-25T18:36:52;5.38;;;3.22;;
27491;SDS011;14927;51.210;6.838;2022-08-25T18:39:36;3.58;;;2.75;;
27491;SDS011;14927;51.210;6.838;2022-08-25T18:42:40;5.80;;;3.22;;
27491;SDS011;14927;51.210;6.838;2022-08-25T18:45:26;4.40;;;3.10;;
27491;SDS011;14927;51.210;6.838;2022-08-25T18:48:21;5.78;;;2.92;;
27491;SDS011;14927;51.210;6.838;2022-08-25T18:51:06;4.10;;;3.00;;
27491;SDS011;14927;51.210;6.838;2022-08-25T18:53:51;2.88;;;2.55;;
27491;SDS011;14927;51.210;6.838;2022-08-25T18:56:36;8.52;;;3.08;;